Kennedy, Indiana
Current Conditions -  °F | °C
As of 8:55 PM on Thursday 18 Dec 2014 (Local Time) from KHNB Reporting Station
Broken Clouds Broken Clouds  
Wind Chill: 25°   Ceiling: 8000
Heat Index: 30°   Visibility: 7mi
Dew Point: 25°   Wind: 5mph
Humidity: 80%   Direction: 350°N
Pressure: 30.27"   Gusts: NA
Location:  38.0467°N, 86.9637°W
Report Text: KHNB 190255Z AUTO 35004KT 7SM FEW050 BKN080 M01/M04 A3027 RMK AO1 52010
Loading
Personal Weather Stations






























Interactive Weather Map New forecast layout! Learn more

10-Day Weather Forecast

Advertisements
Track Severe Weather on mobile